sensor_id;sensor_type;location;lat;lon;timestamp;pressure;altitude;pressure_sealevel;temperature;humidity
63493;BME280;49638;47.526;10.028;2022-10-15T00:01:15;91367.06;;;11.19;100.00
63493;BME280;49638;47.526;10.028;2022-10-15T00:04:16;91364.91;;;11.16;100.00
63493;BME280;49638;47.526;10.028;2022-10-15T00:07:16;91366.00;;;11.20;100.00
63493;BME280;49638;47.526;10.028;2022-10-15T00:10:17;91364.91;;;11.16;100.00
63493;BME280;49638;47.526;10.028;2022-10-15T00:13:17;91353.00;;;11.13;100.00
63493;BME280;49638;47.526;10.028;2022-10-15T00:16:20;91370.75;;;11.18;100.00
63493;BME280;49638;47.526;10.028;2022-10-15T00:19:21;91365.47;;;11.18;100.00
63493;BME280;49638;47.526;10.028;2022-10-15T00:22:21;91362.84;;;11.18;100.00
63493;BME280;49638;47.526;10.028;2022-10-15T00:25:21;91360.69;;;11.15;100.00
63493;BME280;49638;47.526;10.028;2022-10-15T00:28:22;91365.44;;;11.13;100.00
63493;BME280;49638;47.526;10.028;2022-10-15T00:31:24;91370.22;;;11.16;100.00
63493;BME280;49638;47.526;10.028;2022-10-15T00:34:26;91360.44;;;11.17;100.00
63493;BME280;49638;47.526;10.028;2022-10-15T00:37:26;91357.53;;;11.18;100.00
63493;BME280;49638;47.526;10.028;2022-10-15T00:40:27;91348.78;;;11.12;100.00
63493;BME280;49638;47.526;10.028;2022-10-15T00:46:39;91362.84;;;11.18;100.00
63493;BME280;49638;47.526;10.028;2022-10-15T00:49:48;91342.94;;;11.10;100.00
63493;BME280;49638;47.526;10.028;2022-10-15T00:55:53;91354.31;;;11.11;100.00
63493;BME280;49638;47.526;10.028;2022-10-15T00:58:54;91348.00;;;11.17;100.00
63493;BME280;49638;47.526;10.028;2022-10-15T01:01:58;91362.03;;;11.18;100.00
63493;BME280;49638;47.526;10.028;2022-10-15T01:05:00;91350.41;;;11.19;100.00
63493;BME280;49638;47.526;10.028;2022-10-15T01:08:00;91366.50;;;11.17;100.00
63493;BME280;49638;47.526;10.028;2022-10-15T01:11:15;91358.06;;;11.15;100.00
63493;BME280;49638;47.526;10.028;2022-10-15T01:20:54;91353.56;;;11.21;100.00
63493;BME280;49638;47.526;10.028;2022-10-15T01:24:21;91353.91;;;11.29;100.00
63493;BME280;49638;47.526;10.028;2022-10-15T01:27:31;91366.91;;;11.36;100.00
63493;BME280;49638;47.526;10.028;2022-10-15T01:30:44;91375.13;;;11.40;100.00
63493;BME280;49638;47.526;10.028;2022-10-15T01:34:04;91364.53;;;11.34;100.00
63493;BME280;49638;47.526;10.028;2022-10-15T01:37:16;91349.44;;;11.40;100.00
63493;BME280;49638;47.526;10.028;2022-10-15T01:40:36;91339.16;;;11.44;100.00
63493;BME280;49638;47.526;10.028;2022-10-15T01:43:56;91368.06;;;11.55;100.00
63493;BME280;49638;47.526;10.028;2022-10-15T01:47:10;91369.94;;;11.60;100.00
63493;BME280;49638;47.526;10.028;2022-10-15T01:50:14;91364.13;;;11.63;100.00
63493;BME280;49638;47.526;10.028;2022-10-15T01:53:22;91357.53;;;11.66;100.00
63493;BME280;49638;47.526;10.028;2022-10-15T01:56:26;91366.81;;;11.73;100.00
63493;BME280;49638;47.526;10.028;2022-10-15T01:59:30;91375.56;;;11.74;100.00
63493;BME280;49638;47.526;10.028;2022-10-15T02:02:31;91374.25;;;11.76;100.00
63493;BME280;49638;47.526;10.028;2022-10-15T02:05:35;91377.41;;;11.78;100.00
63493;BME280;49638;47.526;10.028;2022-10-15T02:08:56;91363.13;;;11.74;100.00
63493;BME280;49638;47.526;10.028;2022-10-15T02:18:46;91382.75;;;11.83;100.00
63493;BME280;49638;47.526;10.028;2022-10-15T02:22:13;91384.56;;;11.78;100.00
63493;BME280;49638;47.526;10.028;2022-10-15T02:25:20;91395.97;;;11.78;100.00
63493;BME280;49638;47.526;10.028;2022-10-15T02:28:22;91394.13;;;11.79;100.00
63493;BME280;49638;47.526;10.028;2022-10-15T02:31:25;91385.34;;;11.73;100.00
63493;BME280;49638;47.526;10.028;2022-10-15T02:34:29;91385.13;;;11.80;100.00
63493;BME280;49638;47.526;10.028;2022-10-15T02:37:33;91397.06;;;11.82;100.00
63493;BME280;49638;47.526;10.028;2022-10-15T02:40:34;91387.50;;;11.81;100.00
63493;BME280;49638;47.526;10.028;2022-10-15T02:43:37;91372.75;;;11.86;100.00
63493;BME280;49638;47.526;10.028;2022-10-15T02:46:38;91382.78;;;11.89;100.00
63493;BME280;49638;47.526;10.028;2022-10-15T02:49:38;91376.69;;;11.88;100.00
63493;BME280;49638;47.526;10.028;2022-10-15T02:52:39;91371.97;;;11.90;100.00
63493;BME280;49638;47.526;10.028;2022-10-15T02:55:39;91369.31;;;11.90;100.00
63493;BME280;49638;47.526;10.028;2022-10-15T02:58:39;91356.28;;;11.83;100.00
63493;BME280;49638;47.526;10.028;2022-10-15T03:01:40;91379.13;;;11.95;100.00
63493;BME280;49638;47.526;10.028;2022-10-15T03:04:40;91367.72;;;11.94;100.00
63493;BME280;49638;47.526;10.028;2022-10-15T03:07:40;91370.66;;;11.98;100.00
63493;BME280;49638;47.526;10.028;2022-10-15T03:10:41;91378.34;;;11.99;100.00
63493;BME280;49638;47.526;10.028;2022-10-15T03:13:41;91369.88;;;11.97;100.00
63493;BME280;49638;47.526;10.028;2022-10-15T03:16:41;91378.09;;;12.01;100.00
63493;BME280;49638;47.526;10.028;2022-10-15T03:19:41;91359.53;;;11.96;100.00
63493;BME280;49638;47.526;10.028;2022-10-15T03:22:42;91364.28;;;11.99;100.00
63493;BME280;49638;47.526;10.028;2022-10-15T03:25:42;91360.09;;;12.03;100.00
63493;BME280;49638;47.526;10.028;2022-10-15T03:28:42;91358.22;;;12.03;100.00
63493;BME280;49638;47.526;10.028;2022-10-15T03:31:43;91343.66;;;12.01;100.00
63493;BME280;49638;47.526;10.028;2022-10-15T03:34:43;91348.44;;;12.04;100.00
63493;BME280;49638;47.526;10.028;2022-10-15T03:37:43;91339.16;;;12.01;100.00
63493;BME280;49638;47.526;10.028;2022-10-15T03:40:44;91346.84;;;12.03;100.00
63493;BME280;49638;47.526;10.028;2022-10-15T03:43:44;91330.16;;;12.02;100.00
63493;BME280;49638;47.526;10.028;2022-10-15T03:46:45;91343.41;;;12.07;100.00
63493;BME280;49638;47.526;10.028;2022-10-15T03:49:45;91334.91;;;12.05;100.00
63493;BME280;49638;47.526;10.028;2022-10-15T03:52:45;91347.13;;;12.12;100.00
63493;BME280;49638;47.526;10.028;2022-10-15T03:55:46;91339.97;;;12.07;100.00
63493;BME280;49638;47.526;10.028;2022-10-15T03:58:46;91346.09;;;12.13;100.00
63493;BME280;49638;47.526;10.028;2022-10-15T04:01:46;91338.66;;;12.10;100.00
63493;BME280;49638;47.526;10.028;2022-10-15T04:04:46;91349.53;;;12.13;100.00
63493;BME280;49638;47.526;10.028;2022-10-15T04:07:47;91361.16;;;12.12;100.00
63493;BME280;49638;47.526;10.028;2022-10-15T04:10:47;91361.16;;;12.07;100.00
63493;BME280;49638;47.526;10.028;2022-10-15T04:13:49;91365.13;;;12.04;100.00
63493;BME280;49638;47.526;10.028;2022-10-15T04:16:50;91355.84;;;12.02;100.00
63493;BME280;49638;47.526;10.028;2022-10-15T04:19:50;91360.06;;;11.98;100.00
63493;BME280;49638;47.526;10.028;2022-10-15T04:22:50;91371.44;;;11.98;100.00
63493;BME280;49638;47.526;10.028;2022-10-15T04:25:50;91373.28;;;11.93;100.00
63493;BME280;49638;47.526;10.028;2022-10-15T04:28:51;91380.19;;;11.94;100.00
63493;BME280;49638;47.526;10.028;2022-10-15T04:31:51;91384.16;;;11.96;100.00
63493;BME280;49638;47.526;10.028;2022-10-15T04:34:51;91376.97;;;11.92;100.00
63493;BME280;49638;47.526;10.028;2022-10-15T04:37:52;91376.75;;;11.98;100.00
63493;BME280;49638;47.526;10.028;2022-10-15T04:41:04;91378.09;;;12.01;100.00
63493;BME280;49638;47.526;10.028;2022-10-15T04:44:05;91371.19;;;12.00;100.00
63493;BME280;49638;47.526;10.028;2022-10-15T04:47:06;91376.50;;;12.05;100.00
63493;BME280;49638;47.526;10.028;2022-10-15T04:50:06;91369.09;;;12.07;100.00
63493;BME280;49638;47.526;10.028;2022-10-15T04:53:06;91366.69;;;12.05;100.00
63493;BME280;49638;47.526;10.028;2022-10-15T04:56:10;91372.81;;;12.06;100.00
63493;BME280;49638;47.526;10.028;2022-10-15T04:59:12;91371.22;;;12.05;100.00
63493;BME280;49638;47.526;10.028;2022-10-15T05:02:13;91378.63;;;12.08;100.00
63493;BME280;49638;47.526;10.028;2022-10-15T05:05:13;91385.00;;;12.07;100.00
63493;BME280;49638;47.526;10.028;2022-10-15T05:08:13;91381.28;;;12.03;100.00
63493;BME280;49638;47.526;10.028;2022-10-15T05:11:16;91391.38;;;12.11;100.00
63493;BME280;49638;47.526;10.028;2022-10-15T05:14:17;91374.13;;;12.03;100.00
63493;BME280;49638;47.526;10.028;2022-10-15T05:17:17;91388.72;;;12.06;100.00
63493;BME280;49638;47.526;10.028;2022-10-15T05:20:17;91393.44;;;11.99;100.00
63493;BME280;49638;47.526;10.028;2022-10-15T05:23:18;91404.06;;;12.04;100.00
63493;BME280;49638;47.526;10.028;2022-10-15T05:26:20;91403.25;;;12.03;100.00
63493;BME280;49638;47.526;10.028;2022-10-15T05:29:21;91388.69;;;12.01;100.00
63493;BME280;49638;47.526;10.028;2022-10-15T05:32:21;91409.63;;;12.07;100.00
63493;BME280;49638;47.526;10.028;2022-10-15T05:35:22;91412.56;;;12.11;100.00
63493;BME280;49638;47.526;10.028;2022-10-15T05:38:22;91407.25;;;12.11;100.00
63493;BME280;49638;47.526;10.028;2022-10-15T05:41:23;91417.59;;;12.13;100.00
63493;BME280;49638;47.526;10.028;2022-10-15T05:44:24;91398.25;;;12.07;100.00
63493;BME280;49638;47.526;10.028;2022-10-15T05:47:24;91409.34;;;12.09;100.00
63493;BME280;49638;47.526;10.028;2022-10-15T05:50:25;91417.06;;;12.11;100.00
63493;BME280;49638;47.526;10.028;2022-10-15T05:53:25;91409.91;;;12.11;100.00
63493;BME280;49638;47.526;10.028;2022-10-15T05:56:26;91424.22;;;12.15;100.00
63493;BME280;49638;47.526;10.028;2022-10-15T05:59:26;91420.25;;;12.13;100.00
63493;BME280;49638;47.526;10.028;2022-10-15T06:02:27;91436.16;;;12.18;100.00
63493;BME280;49638;47.526;10.028;2022-10-15T06:05:27;91443.84;;;12.19;100.00
63493;BME280;49638;47.526;10.028;2022-10-15T06:08:28;91444.91;;;12.18;100.00
63493;BME280;49638;47.526;10.028;2022-10-15T06:11:29;91454.16;;;12.16;100.00
63493;BME280;49638;47.526;10.028;2022-10-15T06:14:29;91451.00;;;12.19;100.00
63493;BME280;49638;47.526;10.028;2022-10-15T06:17:29;91449.91;;;12.15;100.00
63493;BME280;49638;47.526;10.028;2022-10-15T06:20:29;91460.00;;;12.18;100.00
63493;BME280;49638;47.526;10.028;2022-10-15T06:23:30;91453.41;;;12.20;100.00
63493;BME280;49638;47.526;10.028;2022-10-15T06:26:30;91459.47;;;12.21;100.00
63493;BME280;49638;47.526;10.028;2022-10-15T06:29:31;91454.69;;;12.18;100.00
63493;BME280;49638;47.526;10.028;2022-10-15T06:32:31;91466.88;;;12.19;100.00
63493;BME280;49638;47.526;10.028;2022-10-15T06:35:31;91468.75;;;12.18;100.00
63493;BME280;49638;47.526;10.028;2022-10-15T06:38:35;91479.63;;;12.22;100.00
63493;BME280;49638;47.526;10.028;2022-10-15T06:41:35;91470.88;;;12.16;100.00
63493;BME280;49638;47.526;10.028;2022-10-15T06:44:36;91491.56;;;12.24;100.00
63493;BME280;49638;47.526;10.028;2022-10-15T06:47:37;91483.59;;;12.24;100.00
63493;BME280;49638;47.526;10.028;2022-10-15T06:50:39;91483.56;;;12.19;100.00
63493;BME280;49638;47.526;10.028;2022-10-15T06:53:40;91490.50;;;12.25;100.00
63493;BME280;49638;47.526;10.028;2022-10-15T06:56:41;91482.03;;;12.23;100.00
63493;BME280;49638;47.526;10.028;2022-10-15T06:59:41;91483.09;;;12.27;100.00
63493;BME280;49638;47.526;10.028;2022-10-15T07:02:42;91491.06;;;12.32;100.00
63493;BME280;49638;47.526;10.028;2022-10-15T07:05:42;91482.59;;;12.30;100.00
63493;BME280;49638;47.526;10.028;2022-10-15T07:08:42;91496.38;;;12.38;100.00
63493;BME280;49638;47.526;10.028;2022-10-15T07:11:44;91487.88;;;12.36;100.00
63493;BME280;49638;47.526;10.028;2022-10-15T07:14:44;91495.59;;;12.42;100.00
63493;BME280;49638;47.526;10.028;2022-10-15T07:17:48;91493.47;;;12.39;100.00
63493;BME280;49638;47.526;10.028;2022-10-15T07:20:49;91501.19;;;12.46;100.00
63493;BME280;49638;47.526;10.028;2022-10-15T07:23:49;91486.63;;;12.43;100.00
63493;BME280;49638;47.526;10.028;2022-10-15T07:26:49;91487.13;;;12.45;100.00
63493;BME280;49638;47.526;10.028;2022-10-15T07:29:50;91500.94;;;12.52;100.00
63493;BME280;49638;47.526;10.028;2022-10-15T07:32:50;91512.63;;;12.57;100.00
63493;BME280;49638;47.526;10.028;2022-10-15T07:35:50;91520.88;;;12.60;100.00
63493;BME280;49638;47.526;10.028;2022-10-15T07:38:51;91530.69;;;12.65;100.00
63493;BME280;49638;47.526;10.028;2022-10-15T07:41:51;91535.72;;;12.66;100.00
63493;BME280;49638;47.526;10.028;2022-10-15T07:44:51;91531.22;;;12.67;100.00
63493;BME280;49638;47.526;10.028;2022-10-15T07:47:52;91536.00;;;12.65;100.00
63493;BME280;49638;47.526;10.028;2022-10-15T07:50:57;91534.41;;;12.64;100.00
63493;BME280;49638;47.526;10.028;2022-10-15T07:53:57;91542.09;;;12.65;100.00
63493;BME280;49638;47.526;10.028;2022-10-15T07:56:58;91540.50;;;12.69;100.00
63493;BME280;49638;47.526;10.028;2022-10-15T07:59:58;91545.28;;;12.72;100.00
63493;BME280;49638;47.526;10.028;2022-10-15T08:02:58;91541.56;;;12.73;100.00
63493;BME280;49638;47.526;10.028;2022-10-15T08:06:00;91544.81;;;12.81;100.00
63493;BME280;49638;47.526;10.028;2022-10-15T08:09:03;91555.41;;;12.86;100.00
63493;BME280;49638;47.526;10.028;2022-10-15T08:12:04;91545.34;;;12.88;100.00
63493;BME280;49638;47.526;10.028;2022-10-15T08:15:07;91546.16;;;12.93;100.00
63493;BME280;49638;47.526;10.028;2022-10-15T08:18:08;91546.97;;;12.99;100.00
63493;BME280;49638;47.526;10.028;2022-10-15T08:21:11;91551.22;;;13.10;100.00
63493;BME280;49638;47.526;10.028;2022-10-15T08:24:12;91546.22;;;13.19;100.00
63493;BME280;49638;47.526;10.028;2022-10-15T08:27:12;91537.53;;;13.29;100.00
63493;BME280;49638;47.526;10.028;2022-10-15T08:30:13;91539.41;;;13.38;100.00
63493;BME280;49638;47.526;10.028;2022-10-15T08:33:13;91548.41;;;13.47;100.00
63493;BME280;49638;47.526;10.028;2022-10-15T08:36:14;91541.75;;;13.55;100.00
63493;BME280;49638;47.526;10.028;2022-10-15T08:39:14;91544.44;;;13.60;100.00
63493;BME280;49638;47.526;10.028;2022-10-15T08:42:40;91552.13;;;13.72;100.00
63493;BME280;49638;47.526;10.028;2022-10-15T08:45:43;91551.59;;;13.75;100.00
63493;BME280;49638;47.526;10.028;2022-10-15T08:48:46;91560.38;;;13.86;100.00
63493;BME280;49638;47.526;10.028;2022-10-15T08:51:50;91548.44;;;13.83;100.00
63493;BME280;49638;47.526;10.028;2022-10-15T08:54:54;91563.81;;;13.91;100.00
63493;BME280;49638;47.526;10.028;2022-10-15T08:58:05;91563.28;;;13.94;100.00
63493;BME280;49638;47.526;10.028;2022-10-15T09:01:21;91548.66;;;13.92;99.36
63493;BME280;49638;47.526;10.028;2022-10-15T09:04:29;91548.66;;;13.92;100.00
63493;BME280;49638;47.526;10.028;2022-10-15T09:07:46;91556.13;;;14.00;100.00
63493;BME280;49638;47.526;10.028;2022-10-15T09:10:51;91555.03;;;14.01;100.00
63493;BME280;49638;47.526;10.028;2022-10-15T09:13:52;91569.66;;;14.09;100.00
63493;BME280;49638;47.526;10.028;2022-10-15T09:16:53;91577.63;;;14.14;100.00
63493;BME280;49638;47.526;10.028;2022-10-15T09:19:55;91578.13;;;14.16;100.00
63493;BME280;49638;47.526;10.028;2022-10-15T09:22:56;91578.97;;;14.16;100.00
63493;BME280;49638;47.526;10.028;2022-10-15T09:29:53;91565.69;;;14.16;99.09
63493;BME280;49638;47.526;10.028;2022-10-15T09:33:04;91563.00;;;14.16;99.25
63493;BME280;49638;47.526;10.028;2022-10-15T09:36:18;91559.81;;;14.14;99.46
63493;BME280;49638;47.526;10.028;2022-10-15T09:42:38;91563.28;;;14.15;99.72
63493;BME280;49638;47.526;10.028;2022-10-15T09:45:40;91563.00;;;14.16;99.63
63493;BME280;49638;47.526;10.028;2022-10-15T09:48:57;91565.41;;;14.18;98.34
63493;BME280;49638;47.526;10.028;2022-10-15T09:52:17;91569.34;;;14.26;98.04
63493;BME280;49638;47.526;10.028;2022-10-15T09:56:07;91573.31;;;14.33;97.43
63493;BME280;49638;47.526;10.028;2022-10-15T09:59:15;91572.00;;;14.36;97.70
63493;BME280;49638;47.526;10.028;2022-10-15T10:02:19;91558.72;;;14.36;98.13
63493;BME280;49638;47.526;10.028;2022-10-15T10:05:28;91568.03;;;14.43;96.84
63493;BME280;49638;47.526;10.028;2022-10-15T10:08:33;91570.94;;;14.42;97.18
63493;BME280;49638;47.526;10.028;2022-10-15T10:11:47;91585.81;;;14.43;96.75
63493;BME280;49638;47.526;10.028;2022-10-15T10:18:00;91577.31;;;14.51;97.18
63493;BME280;49638;47.526;10.028;2022-10-15T10:21:04;91584.47;;;14.56;96.97
63493;BME280;49638;47.526;10.028;2022-10-15T10:27:30;91586.31;;;14.65;96.71
63493;BME280;49638;47.526;10.028;2022-10-15T10:30:33;91589.50;;;14.73;96.84
63493;BME280;49638;47.526;10.028;2022-10-15T10:33:45;91585.75;;;14.79;94.69
63493;BME280;49638;47.526;10.028;2022-10-15T10:36:49;91580.94;;;14.86;95.55
63493;BME280;49638;47.526;10.028;2022-10-15T10:39:58;91565.22;;;14.89;94.46
63493;BME280;49638;47.526;10.028;2022-10-15T10:46:17;91572.38;;;14.94;95.18
63493;BME280;49638;47.526;10.028;2022-10-15T10:49:39;91556.72;;;14.87;92.58
63493;BME280;49638;47.526;10.028;2022-10-15T10:52:40;91570.00;;;14.93;94.89
63493;BME280;49638;47.526;10.028;2022-10-15T10:55:41;91563.63;;;14.88;94.62
63493;BME280;49638;47.526;10.028;2022-10-15T10:58:41;91570.25;;;14.96;93.82
63493;BME280;49638;47.526;10.028;2022-10-15T11:01:42;91570.22;;;15.01;94.10
63493;BME280;49638;47.526;10.028;2022-10-15T11:04:43;91556.91;;;15.01;93.71
63493;BME280;49638;47.526;10.028;2022-10-15T11:08:03;91562.75;;;15.08;92.82
63493;BME280;49638;47.526;10.028;2022-10-15T11:11:18;91575.78;;;15.15;91.64
63493;BME280;49638;47.526;10.028;2022-10-15T11:24:18;91580.75;;;15.27;92.31
63493;BME280;49638;47.526;10.028;2022-10-15T11:31:08;91578.94;;;15.22;87.56
63493;BME280;49638;47.526;10.028;2022-10-15T11:55:13;91589.84;;;15.21;90.82
63493;BME280;49638;47.526;10.028;2022-10-15T11:58:30;91592.00;;;15.13;90.68
63493;BME280;49638;47.526;10.028;2022-10-15T12:01:36;91584.56;;;15.10;91.85
63493;BME280;49638;47.526;10.028;2022-10-15T12:04:42;91585.34;;;15.16;91.58
63493;BME280;49638;47.526;10.028;2022-10-15T12:07:48;91594.16;;;15.11;91.74
63493;BME280;49638;47.526;10.028;2022-10-15T12:14:27;91590.97;;;15.04;92.14
63493;BME280;49638;47.526;10.028;2022-10-15T12:17:35;91587.53;;;14.99;89.47
63493;BME280;49638;47.526;10.028;2022-10-15T12:20:40;91593.13;;;14.97;92.14
63493;BME280;49638;47.526;10.028;2022-10-15T12:23:41;91590.50;;;14.92;92.32
63493;BME280;49638;47.526;10.028;2022-10-15T12:26:41;91578.28;;;14.86;92.11
63493;BME280;49638;47.526;10.028;2022-10-15T12:29:42;91580.91;;;14.91;91.79
63493;BME280;49638;47.526;10.028;2022-10-15T12:32:44;91577.97;;;14.93;92.07
63493;BME280;49638;47.526;10.028;2022-10-15T12:35:58;91556.97;;;14.91;91.18
63493;BME280;49638;47.526;10.028;2022-10-15T12:39:21;91546.84;;;14.98;90.78
63493;BME280;49638;47.526;10.028;2022-10-15T12:42:29;91539.34;;;15.05;91.07
63493;BME280;49638;47.526;10.028;2022-10-15T12:45:37;91527.13;;;14.99;90.67
63493;BME280;49638;47.526;10.028;2022-10-15T12:48:40;91544.38;;;15.12;91.86
63493;BME280;49638;47.526;10.028;2022-10-15T12:51:41;91528.13;;;15.13;91.63
63493;BME280;49638;47.526;10.028;2022-10-15T12:54:45;91524.63;;;15.18;91.05
63493;BME280;49638;47.526;10.028;2022-10-15T13:00:46;91510.50;;;15.23;91.66
63493;BME280;49638;47.526;10.028;2022-10-15T13:06:49;91503.53;;;15.32;91.29
63493;BME280;49638;47.526;10.028;2022-10-15T13:09:50;91502.47;;;15.28;90.88
63493;BME280;49638;47.526;10.028;2022-10-15T13:12:59;91494.22;;;15.24;89.63
63493;BME280;49638;47.526;10.028;2022-10-15T13:16:04;91502.19;;;15.29;90.81
63493;BME280;49638;47.526;10.028;2022-10-15T13:19:06;91491.31;;;15.26;90.44
63493;BME280;49638;47.526;10.028;2022-10-15T13:22:24;91492.88;;;15.32;89.38
63493;BME280;49638;47.526;10.028;2022-10-15T13:25:25;91494.94;;;15.40;90.21
63493;BME280;49638;47.526;10.028;2022-10-15T13:28:33;91498.59;;;15.49;89.14
63493;BME280;49638;47.526;10.028;2022-10-15T13:31:37;91492.16;;;15.55;89.92
63493;BME280;49638;47.526;10.028;2022-10-15T13:34:41;91495.88;;;15.59;89.48
63493;BME280;49638;47.526;10.028;2022-10-15T13:37:43;91495.56;;;15.61;89.09
63493;BME280;49638;47.526;10.028;2022-10-15T13:40:47;91492.13;;;15.60;89.14
63493;BME280;49638;47.526;10.028;2022-10-15T13:43:52;91495.88;;;15.59;88.72
63493;BME280;49638;47.526;10.028;2022-10-15T13:46:57;91486.81;;;15.55;89.26
63493;BME280;49638;47.526;10.028;2022-10-15T13:50:15;91490.53;;;15.59;88.18
63493;BME280;49638;47.526;10.028;2022-10-15T13:53:31;91478.00;;;15.60;87.43
63493;BME280;49638;47.526;10.028;2022-10-15T13:56:33;91485.16;;;15.65;89.17
63493;BME280;49638;47.526;10.028;2022-10-15T13:59:33;91477.47;;;15.58;88.82
63493;BME280;49638;47.526;10.028;2022-10-15T14:02:34;91479.91;;;15.54;88.81
63493;BME280;49638;47.526;10.028;2022-10-15T14:05:34;91493.75;;;15.56;88.91
63493;BME280;49638;47.526;10.028;2022-10-15T14:08:35;91481.81;;;15.49;88.67
63493;BME280;49638;47.526;10.028;2022-10-15T14:11:35;91491.91;;;15.52;88.27
63493;BME280;49638;47.526;10.028;2022-10-15T14:14:45;91498.59;;;15.49;86.99
63493;BME280;49638;47.526;10.028;2022-10-15T14:17:50;91490.63;;;15.44;88.06
63493;BME280;49638;47.526;10.028;2022-10-15T14:20:50;91504.47;;;15.46;88.63
63493;BME280;49638;47.526;10.028;2022-10-15T14:24:01;91508.44;;;15.49;87.29
63493;BME280;49638;47.526;10.028;2022-10-15T14:30:17;91495.47;;;15.37;89.01
63493;BME280;49638;47.526;10.028;2022-10-15T14:36:41;91493.91;;;15.36;89.38
63493;BME280;49638;47.526;10.028;2022-10-15T14:39:46;91506.94;;;15.37;89.36
63493;BME280;49638;47.526;10.028;2022-10-15T14:43:06;91507.78;;;15.33;89.12
63493;BME280;49638;47.526;10.028;2022-10-15T14:46:14;91510.69;;;15.31;90.15
63493;BME280;49638;47.526;10.028;2022-10-15T14:49:32;91515.50;;;15.29;90.53
63493;BME280;49638;47.526;10.028;2022-10-15T14:52:35;91505.13;;;15.28;90.88
63493;BME280;49638;47.526;10.028;2022-10-15T14:55:40;91513.66;;;15.25;91.29
63493;BME280;49638;47.526;10.028;2022-10-15T14:58:50;91512.31;;;15.27;90.95
63493;BME280;49638;47.526;10.028;2022-10-15T15:01:54;91502.22;;;15.24;91.41
63493;BME280;49638;47.526;10.028;2022-10-15T15:08:11;91506.97;;;15.32;91.16
63493;BME280;49638;47.526;10.028;2022-10-15T15:11:14;91512.00;;;15.34;91.29
63493;BME280;49638;47.526;10.028;2022-10-15T15:14:23;91503.00;;;15.30;91.27
63493;BME280;49638;47.526;10.028;2022-10-15T15:17:26;91508.00;;;15.36;91.15
63493;BME280;49638;47.526;10.028;2022-10-15T15:20:27;91505.09;;;15.33;91.29
63493;BME280;49638;47.526;10.028;2022-10-15T15:23:28;91510.38;;;15.38;91.18
63493;BME280;49638;47.526;10.028;2022-10-15T15:26:29;91501.09;;;15.35;91.13
63493;BME280;49638;47.526;10.028;2022-10-15T15:29:29;91508.28;;;15.35;91.12
63493;BME280;49638;47.526;10.028;2022-10-15T15:32:29;91505.09;;;15.33;91.20
63493;BME280;49638;47.526;10.028;2022-10-15T15:35:49;91508.84;;;15.32;92.33
63493;BME280;49638;47.526;10.028;2022-10-15T15:38:52;91517.94;;;15.26;92.26
63493;BME280;49638;47.526;10.028;2022-10-15T15:41:57;91521.69;;;15.20;92.96
63493;BME280;49638;47.526;10.028;2022-10-15T15:44:57;91518.28;;;15.09;93.41
63493;BME280;49638;47.526;10.028;2022-10-15T15:47:58;91525.78;;;15.02;93.85
63493;BME280;49638;47.526;10.028;2022-10-15T15:51:19;91526.09;;;14.95;94.60
63493;BME280;49638;47.526;10.028;2022-10-15T15:54:20;91512.56;;;14.86;94.25
63493;BME280;49638;47.526;10.028;2022-10-15T15:57:20;91504.59;;;14.81;94.03
63493;BME280;49638;47.526;10.028;2022-10-15T16:00:20;91520.56;;;14.81;94.49
63493;BME280;49638;47.526;10.028;2022-10-15T16:03:21;91515.03;;;14.68;95.03
63493;BME280;49638;47.526;10.028;2022-10-15T16:06:21;91522.50;;;14.65;95.08
63493;BME280;49638;47.526;10.028;2022-10-15T16:09:21;91521.44;;;14.61;95.54
63493;BME280;49638;47.526;10.028;2022-10-15T16:12:22;91525.72;;;14.52;95.33
63493;BME280;49638;47.526;10.028;2022-10-15T16:15:22;91531.59;;;14.44;95.23
63493;BME280;49638;47.526;10.028;2022-10-15T16:18:23;91520.44;;;14.32;95.07
63493;BME280;49638;47.526;10.028;2022-10-15T16:21:24;91520.47;;;14.22;95.22
63493;BME280;49638;47.526;10.028;2022-10-15T16:24:25;91544.94;;;14.24;95.53
63493;BME280;49638;47.526;10.028;2022-10-15T16:27:25;91541.75;;;14.11;95.52
63493;BME280;49638;47.526;10.028;2022-10-15T16:30:25;91544.94;;;14.08;95.63
63493;BME280;49638;47.526;10.028;2022-10-15T16:33:26;91542.56;;;13.96;96.10
63493;BME280;49638;47.526;10.028;2022-10-15T16:36:26;91549.75;;;13.96;95.69
63493;BME280;49638;47.526;10.028;2022-10-15T16:39:26;91547.09;;;13.86;95.94
63493;BME280;49638;47.526;10.028;2022-10-15T16:42:26;91531.44;;;13.69;95.24
63493;BME280;49638;47.526;10.028;2022-10-15T16:45:27;91550.03;;;13.79;95.22
63493;BME280;49638;47.526;10.028;2022-10-15T16:48:28;91555.88;;;13.76;94.95
63493;BME280;49638;47.526;10.028;2022-10-15T16:51:29;91546.56;;;13.68;95.40
63493;BME280;49638;47.526;10.028;2022-10-15T16:54:29;91559.84;;;13.68;95.62
63493;BME280;49638;47.526;10.028;2022-10-15T16:57:29;91546.56;;;13.63;95.34
63493;BME280;49638;47.526;10.028;2022-10-15T17:00:30;91557.19;;;13.63;95.78
63493;BME280;49638;47.526;10.028;2022-10-15T17:03:32;91546.03;;;13.56;95.68
63493;BME280;49638;47.526;10.028;2022-10-15T17:06:33;91560.38;;;13.60;95.73
63493;BME280;49638;47.526;10.028;2022-10-15T17:09:33;91561.16;;;13.56;95.52
63493;BME280;49638;47.526;10.028;2022-10-15T17:12:35;91581.06;;;13.58;95.14
63493;BME280;49638;47.526;10.028;2022-10-15T17:15:36;91586.91;;;13.50;95.38
63493;BME280;49638;47.526;10.028;2022-10-15T17:18:36;91596.47;;;13.46;95.81
63493;BME280;49638;47.526;10.028;2022-10-15T17:21:37;91604.16;;;13.47;95.99
63493;BME280;49638;47.526;10.028;2022-10-15T17:24:37;91607.63;;;13.53;95.09